Time;durP1;ratioP1;P1;durP2;ratioP2;P2;SDS_P1;SDS_P2;PMS_P1;PMS_P2;Temp;Humidity;BMP_temperature;BMP_pressure;BME280_temperature;BME280_humidity;BME280_pressure;Samples;Min_cycle;Max_cycle;Signal;HPM_P1;HPM_P2
2022/04/26 03:37:23;;;;;;;0.00;0.00;;;12.00;95.10;;;;;;4173976;28;20474;-71
2022/04/26 03:39:50;;;;;;;0.00;0.00;;;12.00;95.10;;;;;;4189148;28;20056;-71
2022/04/26 03:42:12;;;;;;;0.00;0.00;;;12.10;95.10;;;;;;4202980;28;20075;-73
2022/04/26 03:44:36;;;;;;;0.00;0.00;;;12.10;95.10;;;;;;4188781;28;20495;-73
2022/04/26 03:46:58;;;;;;;0.00;0.00;;;12.20;95.10;;;;;;4188912;28;20052;-72
2022/04/26 03:49:27;;;;;;;0.00;0.00;;;12.10;95.10;;;;;;4174517;28;20053;-74
2022/04/26 03:51:53;;;;;;;0.00;0.00;;;12.00;95.30;;;;;;4202565;28;20083;-72
2022/04/26 03:54:15;;;;;;;0.00;0.00;;;11.80;95.50;;;;;;4202665;28;20048;-73
2022/04/26 03:56:39;;;;;;;0.00;0.00;;;11.70;95.70;;;;;;4188537;28;20051;-73
2022/04/26 03:59:04;;;;;;;0.00;0.00;;;11.70;96.10;;;;;;4202641;28;20062;-72
2022/04/26 04:01:26;;;;;;;0.00;0.00;;;11.80;95.70;;;;;;4174945;28;20049;-72
2022/04/26 04:03:50;;;;;;;0.00;0.00;;;11.90;95.60;;;;;;4202733;28;20052;-73
2022/04/26 04:06:18;;;;;;;0.00;0.00;;;12.00;95.50;;;;;;4203671;28;20102;-72
2022/04/26 04:08:45;;;;;;;0.00;0.00;;;12.00;95.50;;;;;;4175505;28;20049;-70
2022/04/26 04:11:09;;;;;;;0.00;0.00;;;12.00;95.40;;;;;;4188286;28;20467;-73
2022/04/26 04:13:31;;;;;;;0.00;0.00;;;12.10;95.20;;;;;;4167894;28;20122;-72
2022/04/26 04:15:56;;;;;;;0.00;0.00;;;12.10;95.20;;;;;;4188509;28;20053;-73
2022/04/26 04:21:01;;;;;;;0.00;0.00;;;12.10;95.10;;;;;;4202039;28;20135;-73
2022/04/26 04:23:23;;;;;;;0.00;0.00;;;12.10;95.10;;;;;;4201772;28;20052;-73
2022/04/26 04:25:45;;;;;;;0.00;0.00;;;12.10;95.10;;;;;;4202072;28;20052;-74
2022/04/26 04:28:11;;;;;;;0.00;0.00;;;12.10;95.10;;;;;;4202153;28;20060;-72
2022/04/26 04:30:33;;;;;;;0.00;0.00;;;12.10;95.10;;;;;;4202016;28;20064;-76
2022/04/26 04:32:55;;;;;;;0.00;0.00;;;12.00;95.10;;;;;;4155282;28;20129;-75
2022/04/26 04:35:17;;;;;;;0.00;0.00;;;12.00;95.20;;;;;;4161084;28;20076;-72
2022/04/26 04:37:39;;;;;;;0.00;0.00;;;12.00;95.20;;;;;;4193101;28;20115;-71
2022/04/26 04:40:03;;;;;;;0.00;0.00;;;12.20;95.10;;;;;;4202326;28;20045;-70
2022/04/26 04:42:28;;;;;;;0.00;0.00;;;12.20;95.10;;;;;;4188148;28;20719;-72
2022/04/26 04:44:52;;;;;;;0.00;0.00;;;12.10;95.10;;;;;;4202069;28;20052;-71
2022/04/26 04:47:14;;;;;;;0.00;0.00;;;12.10;95.10;;;;;;4201564;28;20047;-70
2022/04/26 04:49:38;;;;;;;0.00;0.00;;;12.10;94.90;;;;;;4188057;28;20132;-74
2022/04/26 04:52:00;;;;;;;0.00;0.00;;;12.00;94.90;;;;;;4188084;28;20040;-71
2022/04/26 04:54:25;;;;;;;0.00;0.00;;;12.00;94.90;;;;;;4201947;28;20106;-71
2022/04/26 04:56:50;;;;;;;0.00;0.00;;;12.00;94.90;;;;;;4187492;28;20059;-73
2022/04/26 04:59:18;;;;;;;0.00;0.00;;;12.10;94.80;;;;;;4193400;28;20059;-71
2022/04/26 05:01:40;;;;;;;0.00;0.00;;;12.10;94.90;;;;;;4188325;28;20044;-73
2022/04/26 05:04:03;;;;;;;0.00;0.00;;;12.10;94.90;;;;;;4202497;28;20379;-71
2022/04/26 05:06:25;;;;;;;0.00;0.00;;;12.10;94.80;;;;;;4181645;28;20067;-71
2022/04/26 05:08:47;;;;;;;0.00;0.00;;;12.20;94.80;;;;;;4187645;28;20045;-74
2022/04/26 05:11:11;;;;;;;0.00;0.00;;;12.20;94.70;;;;;;4201780;28;20044;-71
2022/04/26 05:13:35;;;;;;;0.00;0.00;;;12.20;94.70;;;;;;4192941;28;20364;-70
2022/04/26 05:16:00;;;;;;;0.00;0.00;;;12.20;94.70;;;;;;4199107;28;20111;-73
2022/04/26 05:18:22;;;;;;;0.00;0.00;;;12.20;94.80;;;;;;4199916;28;20466;-71
2022/04/26 05:20:46;;;;;;;0.00;0.00;;;12.10;94.80;;;;;;4187575;28;20051;-72
2022/04/26 05:25:53;;;;;;;0.00;0.00;;;12.20;94.70;;;;;;4187715;28;20052;-72
2022/04/26 05:28:17;;;;;;;0.00;0.00;;;12.20;94.70;;;;;;4185322;28;20076;-73
2022/04/26 05:30:44;;;;;;;0.00;0.00;;;12.20;94.60;;;;;;4184587;28;20049;-71
2022/04/26 05:33:06;;;;;;;0.00;0.00;;;12.30;94.50;;;;;;4157169;28;20049;-73
2022/04/26 05:35:29;;;;;;;0.00;0.00;;;12.20;94.40;;;;;;4184391;28;20106;-73
2022/04/26 05:37:53;;;;;;;0.00;0.00;;;12.20;94.50;;;;;;4184375;28;20369;-71
2022/04/26 05:40:18;;;;;;;0.00;0.00;;;12.20;94.60;;;;;;4201085;28;20412;-68
2022/04/26 05:42:42;;;;;;;0.00;0.00;;;12.30;94.60;;;;;;4201090;28;20045;-68
2022/04/26 05:45:04;;;;;;;0.00;0.00;;;12.20;94.70;;;;;;4187010;28;20419;-70
2022/04/26 05:47:26;;;;;;;0.00;0.00;;;12.10;94.90;;;;;;4186786;28;20063;-70
2022/04/26 05:49:51;;;;;;;0.00;0.00;;;12.00;94.70;;;;;;4186759;28;20052;-69
2022/04/26 05:52:13;;;;;;;0.00;0.00;;;11.90;94.50;;;;;;4187151;28;20047;-67
2022/04/26 05:54:39;;;;;;;0.00;0.00;;;11.80;94.40;;;;;;4200816;28;20060;-68
2022/04/26 05:57:04;;;;;;;0.00;0.00;;;11.80;94.30;;;;;;4186785;28;20108;-69
2022/04/26 05:59:30;;;;;;;0.00;0.00;;;11.80;94.10;;;;;;4200509;28;20110;-68
2022/04/26 06:01:52;;;;;;;0.00;0.00;;;11.80;94.00;;;;;;4200842;28;20101;-69
2022/04/26 06:04:14;;;;;;;0.00;0.00;;;11.60;94.00;;;;;;4187006;28;20055;-69
2022/04/26 06:06:39;;;;;;;0.00;0.00;;;11.60;94.20;;;;;;4186819;28;20080;-71
2022/04/26 06:09:04;;;;;;;0.00;0.00;;;11.60;94.10;;;;;;4186854;28;20045;-70
2022/04/26 06:11:29;;;;;;;0.00;0.00;;;11.60;93.90;;;;;;4186362;28;20364;-67
2022/04/26 06:13:55;;;;;;;0.00;0.00;;;11.50;93.90;;;;;;4200617;28;20445;-69
2022/04/26 06:16:24;;;;;;;0.00;0.00;;;11.40;93.60;;;;;;4200458;28;20478;-73
2022/04/26 06:18:46;;;;;;;0.00;0.00;;;11.30;94.00;;;;;;4186512;28;20376;-71
2022/04/26 06:21:10;;;;;;;0.00;0.00;;;11.40;94.00;;;;;;4200126;28;20049;-72
2022/04/26 06:23:37;;;;;;;0.00;0.00;;;11.20;93.70;;;;;;4180420;28;20088;-70
2022/04/26 06:25:59;;;;;;;0.00;0.00;;;11.20;93.80;;;;;;4200163;28;20048;-69
2022/04/26 06:28:23;;;;;;;0.00;0.00;;;10.80;92.60;;;;;;4200532;28;20394;-70
2022/04/26 06:30:48;;;;;;;0.00;0.00;;;10.40;92.70;;;;;;4200331;28;20060;-72
2022/04/26 06:33:13;;;;;;;0.00;0.00;;;10.30;92.80;;;;;;4167090;28;20483;-68
2022/04/26 06:35:43;;;;;;;0.00;0.00;;;10.30;92.90;;;;;;4166748;28;20045;-69
2022/04/26 06:38:05;;;;;;;0.00;0.00;;;10.00;92.80;;;;;;4184307;28;20060;-69
2022/04/26 06:40:30;;;;;;;0.00;0.00;;;9.90;93.30;;;;;;4192836;28;20394;-69
2022/04/26 06:42:54;;;;;;;0.00;0.00;;;10.00;93.30;;;;;;4186435;28;20530;-68
2022/04/26 06:45:16;;;;;;;0.00;0.00;;;10.30;93.20;;;;;;4185765;28;20049;-68
2022/04/26 06:47:41;;;;;;;0.00;0.00;;;10.40;93.10;;;;;;4200047;28;20044;-70
2022/04/26 06:50:05;;;;;;;0.00;0.00;;;10.40;93.10;;;;;;4172578;28;20049;-68
2022/04/26 06:52:31;;;;;;;0.00;0.00;;;10.30;93.20;;;;;;4185979;28;20044;-70
2022/04/26 06:54:53;;;;;;;0.00;0.00;;;10.10;93.40;;;;;;4200050;28;20449;-68
2022/04/26 06:57:16;;;;;;;0.00;0.00;;;10.20;93.30;;;;;;4199133;28;20056;-69
2022/04/26 06:59:40;;;;;;;0.00;0.00;;;10.10;92.80;;;;;;4186243;28;20096;-69
2022/04/26 07:02:07;;;;;;;0.00;0.00;;;10.20;93.00;;;;;;4185454;28;20360;-71
2022/04/26 07:04:29;;;;;;;0.00;0.00;;;10.20;92.90;;;;;;4200021;28;20139;-70
2022/04/26 07:06:56;;;;;;;0.00;0.00;;;10.20;93.10;;;;;;4199893;28;20053;-68
2022/04/26 07:09:25;;;;;;;0.00;0.00;;;10.10;93.30;;;;;;4199329;28;20126;-69
2022/04/26 07:11:49;;;;;;;0.00;0.00;;;9.90;93.50;;;;;;4199785;28;20048;-69
2022/04/26 07:14:11;;;;;;;0.00;0.00;;;9.90;93.80;;;;;;4199683;28;20092;-69
2022/04/26 07:16:38;;;;;;;0.00;0.00;;;10.10;93.30;;;;;;4185901;28;20119;-71
2022/04/26 07:19:02;;;;;;;0.00;0.00;;;10.00;93.30;;;;;;4199745;28;20056;-67
2022/04/26 07:21:27;;;;;;;0.00;0.00;;;9.90;93.60;;;;;;4185657;28;20106;-69
2022/04/26 07:24:13;;;;;;;0.00;0.00;;;9.80;93.70;;;;;;4185852;28;20395;-67
2022/04/26 07:26:43;;;;;;;0.00;0.00;;;9.90;94.00;;;;;;4199631;28;20045;-67
2022/04/26 07:29:10;;;;;;;0.00;0.00;;;9.90;94.00;;;;;;4199666;28;20131;-69
2022/04/26 07:31:38;;;;;;;0.00;0.00;;;10.20;94.00;;;;;;4190434;28;20110;-68
2022/04/26 07:36:43;;;;;;;0.00;0.00;;;10.30;93.80;;;;;;4174240;28;20061;-70
2022/04/26 07:39:07;;;;;;;0.00;0.00;;;10.40;93.60;;;;;;4199638;28;20451;-70
2022/04/26 07:41:34;;;;;;;0.00;0.00;;;10.40;93.60;;;;;;4185285;28;20094;-68
2022/04/26 07:43:58;;;;;;;0.00;0.00;;;10.40;93.50;;;;;;4199545;28;20111;-67
2022/04/26 07:46:20;;;;;;;0.00;0.00;;;10.40;93.30;;;;;;4171845;28;20057;-67
2022/04/26 07:48:45;;;;;;;0.00;0.00;;;10.30;93.30;;;;;;4185276;28;20044;-69
2022/04/26 07:51:11;;;;;;;0.00;0.00;;;10.00;93.30;;;;;;4199473;28;20471;-72
2022/04/26 07:53:36;;;;;;;0.00;0.00;;;9.90;93.60;;;;;;4199297;28;20058;-69
2022/04/26 07:56:00;;;;;;;0.00;0.00;;;10.00;93.70;;;;;;4185527;28;20077;-69
2022/04/26 07:58:22;;;;;;;0.00;0.00;;;10.00;93.60;;;;;;4199275;28;20128;-69
2022/04/26 08:00:44;;;;;;;0.00;0.00;;;9.80;93.70;;;;;;4185461;28;20137;-68
2022/04/26 08:03:11;;;;;;;0.00;0.00;;;9.70;93.70;;;;;;4199433;28;20041;-68
2022/04/26 08:05:35;;;;;;;0.00;0.00;;;9.70;93.50;;;;;;4185104;28;20523;-71
2022/04/26 08:07:59;;;;;;;0.00;0.00;;;9.70;93.60;;;;;;4199544;28;20470;-68
2022/04/26 08:10:22;;;;;;;0.00;0.00;;;9.90;93.30;;;;;;4171509;28;20064;-69
2022/04/26 08:12:44;;;;;;;0.00;0.00;;;10.00;93.20;;;;;;4186304;28;20053;-70
2022/04/26 08:15:07;;;;;;;0.00;0.00;;;10.00;93.20;;;;;;4202671;28;20051;-68
2022/04/26 08:17:29;;;;;;;0.00;0.00;;;10.00;93.20;;;;;;4188269;28;20466;-69
2022/04/26 08:19:53;;;;;;;0.00;0.00;;;10.10;93.20;;;;;;4174505;28;20102;-71
2022/04/26 08:22:18;;;;;;;0.00;0.00;;;10.20;93.10;;;;;;4202101;28;20053;-68
2022/04/26 08:27:25;;;;;;;0.00;0.00;;;10.10;92.80;;;;;;4187600;28;20059;-72
2022/04/26 08:29:48;;;;;;;0.00;0.00;;;10.10;92.30;;;;;;4202215;28;20060;-69
2022/04/26 08:32:13;;;;;;;0.00;0.00;;;10.00;92.10;;;;;;4190763;28;20060;-69
2022/04/26 08:34:37;;;;;;;0.00;0.00;;;9.90;92.10;;;;;;4185616;28;20430;-67
2022/04/26 08:36:59;;;;;;;0.00;0.00;;;9.80;91.80;;;;;;4191662;28;20040;-74
2022/04/26 08:39:23;;;;;;;0.00;0.00;;;9.90;91.90;;;;;;4202119;28;20055;-69
2022/04/26 08:41:47;;;;;;;0.00;0.00;;;10.00;91.80;;;;;;4174716;28;20384;-70
2022/04/26 08:44:12;;;;;;;0.00;0.00;;;10.10;91.70;;;;;;4202522;28;20444;-68
2022/04/26 08:52:06;;;;;;;0.00;0.00;;;10.00;92.10;;;;;;4201814;28;20044;-71
2022/04/26 08:54:32;;;;;;;0.00;0.00;;;10.00;92.00;;;;;;4201979;28;20056;-70
2022/04/26 08:56:56;;;;;;;0.00;0.00;;;10.10;92.10;;;;;;4187818;28;20060;-74
2022/04/26 08:59:18;;;;;;;0.00;0.00;;;10.20;92.10;;;;;;4187483;28;20045;-66
2022/04/26 09:01:44;;;;;;;0.00;0.00;;;10.20;92.10;;;;;;4201705;28;20056;-72
2022/04/26 09:04:15;;;;;;;0.00;0.00;;;10.20;91.90;;;;;;4201790;28;20040;-68
2022/04/26 09:06:45;;;;;;;0.00;0.00;;;10.20;91.60;;;;;;4174157;28;20087;-71
2022/04/26 09:09:09;;;;;;;0.00;0.00;;;10.20;91.50;;;;;;4187789;28;20047;-69
2022/04/26 09:11:37;;;;;;;0.00;0.00;;;10.00;91.40;;;;;;4201004;28;20060;-67
2022/04/26 09:14:04;;;;;;;0.00;0.00;;;10.00;91.70;;;;;;4174464;28;20139;-69
2022/04/26 09:16:29;;;;;;;0.00;0.00;;;9.90;91.60;;;;;;4201746;28;20049;-70
2022/04/26 09:18:56;;;;;;;0.00;0.00;;;9.70;91.50;;;;;;4187433;28;20064;-70
2022/04/26 09:21:20;;;;;;;0.00;0.00;;;9.70;91.70;;;;;;4186982;28;20049;-68
2022/04/26 09:23:46;;;;;;;0.00;0.00;;;9.70;91.70;;;;;;4187452;28;20110;-71
2022/04/26 09:26:12;;;;;;;0.00;0.00;;;9.70;91.70;;;;;;4187587;28;20053;-69
2022/04/26 09:28:37;;;;;;;0.00;0.00;;;9.70;91.60;;;;;;4201031;28;20130;-70
2022/04/26 09:31:15;;;;;;;0.00;0.00;;;9.80;91.20;;;;;;4200046;28;20044;-72
2022/04/26 09:33:47;;;;;;;0.00;0.00;;;9.70;91.00;;;;;;4184036;28;20057;-68
2022/04/26 09:36:13;;;;;;;0.00;0.00;;;9.50;91.40;;;;;;4157327;28;20473;-70
2022/04/26 09:38:37;;;;;;;0.00;0.00;;;9.60;91.50;;;;;;4155776;28;20057;-69
2022/04/26 09:41:01;;;;;;;0.00;0.00;;;9.60;91.20;;;;;;4156309;28;20099;-67
2022/04/26 09:43:26;;;;;;;0.00;0.00;;;9.60;91.10;;;;;;4169811;28;20037;-70
2022/04/26 09:45:56;;;;;;;0.00;0.00;;;9.70;90.90;;;;;;4155299;28;20053;-70
2022/04/26 09:48:32;;;;;;;0.00;0.00;;;9.80;90.70;;;;;;4168398;28;20041;-69
2022/04/26 09:50:57;;;;;;;0.00;0.00;;;9.80;90.50;;;;;;4168505;28;20479;-67
2022/04/26 09:53:21;;;;;;;0.00;0.00;;;9.50;90.10;;;;;;4154591;28;20119;-69
2022/04/26 09:55:48;;;;;;;0.00;0.00;;;9.50;90.40;;;;;;4168514;28;20049;-70
2022/04/26 09:58:20;;;;;;;0.00;0.00;;;9.60;90.50;;;;;;4155391;28;20659;-71
2022/04/26 10:00:49;;;;;;;0.00;0.00;;;9.50;90.20;;;;;;4168299;28;20483;-71
2022/04/26 10:03:20;;;;;;;0.00;0.00;;;9.40;90.50;;;;;;4168157;28;20140;-71
2022/04/26 10:05:49;;;;;;;0.00;0.00;;;9.30;90.50;;;;;;4167871;28;20045;-70
2022/04/26 10:08:19;;;;;;;0.00;0.00;;;9.00;90.70;;;;;;4154545;28;20128;-70
2022/04/26 10:10:42;;;;;;;0.00;0.00;;;8.90;91.10;;;;;;4154654;28;20100;-71
2022/04/26 10:15:51;;;;;;;0.00;0.00;;;9.20;91.00;;;;;;4167245;28;20046;-69
2022/04/26 10:18:49;;;;;;;0.00;0.00;;;9.30;90.90;;;;;;4181716;28;20059;-70
2022/04/26 10:21:23;;;;;;;0.00;0.00;;;9.50;91.20;;;;;;4107010;28;20150;-72
2022/04/26 10:23:51;;;;;;;0.00;0.00;;;9.40;91.10;;;;;;4185767;28;20083;-69
2022/04/26 10:26:25;;;;;;;0.00;0.00;;;9.60;90.70;;;;;;4186840;28;20045;-68
2022/04/26 10:28:59;;;;;;;0.00;0.00;;;9.50;90.20;;;;;;4186591;28;20135;-67
2022/04/26 10:31:54;;;;;;;0.00;0.00;;;9.50;89.80;;;;;;4167802;28;20157;-71
2022/04/26 10:34:29;;;;;;;0.00;0.00;;;9.50;89.40;;;;;;4183988;28;20045;-69
2022/04/26 10:36:51;;;;;;;0.00;0.00;;;9.50;90.20;;;;;;4183185;28;20216;-67
2022/04/26 10:39:13;;;;;;;0.00;0.00;;;9.60;90.40;;;;;;4183789;28;20044;-70
2022/04/26 10:41:40;;;;;;;0.00;0.00;;;9.50;90.70;;;;;;4184585;28;20045;-69
2022/04/26 10:44:19;;;;;;;0.00;0.00;;;9.70;90.40;;;;;;4170484;28;20045;-69
2022/04/26 10:47:00;;;;;;;0.00;0.00;;;9.70;90.20;;;;;;4170209;28;20042;-69
2022/04/26 10:49:28;;;;;;;;;;;9.60;90.20;;;;;;4184036;28;20056;-70
2022/04/26 10:51:53;;;;;;;0.00;0.00;;;9.60;90.10;;;;;;4170479;28;19963;-70
2022/04/26 10:54:55;;;;;;;0.00;0.00;;;9.80;90.30;;;;;;4184006;28;20111;-69
2022/04/26 10:57:19;;;;;;;0.00;0.00;;;9.90;90.40;;;;;;4182973;28;20048;-70
2022/04/26 10:59:49;;;;;;;0.00;0.00;;;10.10;90.00;;;;;;4169873;28;20465;-75
2022/04/26 11:02:19;;;;;;;0.00;0.00;;;10.40;89.80;;;;;;4183396;28;20457;-68
2022/04/26 11:04:41;;;;;;;0.00;0.00;;;10.50;89.50;;;;;;4170235;28;20048;-69
2022/04/26 11:07:11;;;;;;;0.00;0.00;;;10.60;89.20;;;;;;4169939;28;20444;-69
2022/04/26 11:09:33;;;;;;;0.00;0.00;;;10.50;88.40;;;;;;4197116;28;20055;-69
2022/04/26 11:11:56;;;;;;;0.00;0.00;;;10.40;87.60;;;;;;4169811;28;20049;-69
2022/04/26 11:14:21;;;;;;;0.00;0.00;;;10.40;88.20;;;;;;4197601;28;20102;-69
2022/04/26 11:16:59;;;;;;;0.00;0.00;;;10.60;88.20;;;;;;4183836;28;20049;-68
2022/04/26 11:19:31;;;;;;;0.00;0.00;;;10.80;87.70;;;;;;4182971;28;20064;-68
2022/04/26 11:22:07;;;;;;;0.00;0.00;;;11.00;88.10;;;;;;4178182;28;20102;-69
2022/04/26 11:29:51;;;;;;;0.00;0.00;;;11.60;86.10;;;;;;4199269;28;20106;-68
2022/04/26 11:32:38;;;;;;;0.00;0.00;;;11.70;85.80;;;;;;4173661;28;20363;-69
2022/04/26 11:35:04;;;;;;;0.00;0.00;;;11.80;84.70;;;;;;4169186;28;20111;-69
2022/04/26 11:37:26;;;;;;;0.00;0.00;;;11.60;84.30;;;;;;4178711;28;20048;-67
2022/04/26 11:39:48;;;;;;;0.00;0.00;;;11.70;84.40;;;;;;4171961;28;20060;-70
2022/04/26 11:42:15;;;;;;;0.00;0.00;;;11.80;81.70;;;;;;4199726;28;20073;-71
2022/04/26 11:44:58;;;;;;;0.00;0.00;;;11.70;82.40;;;;;;4185746;28;20537;-71
2022/04/26 11:47:41;;;;;;;0.00;0.00;;;11.90;82.00;;;;;;4185889;28;20439;-71
2022/04/26 11:50:15;;;;;;;0.00;0.00;;;12.00;82.00;;;;;;4202800;28;20052;-69
2022/04/26 11:52:43;;;;;;;0.00;0.00;;;12.20;81.90;;;;;;4202734;28;20132;-70
2022/04/26 11:55:10;;;;;;;0.00;0.00;;;12.20;82.20;;;;;;4175463;28;20060;-69
2022/04/26 11:57:32;;;;;;;0.00;0.00;;;12.30;80.80;;;;;;4188172;28;20131;-69
2022/04/26 11:59:56;;;;;;;0.00;0.00;;;12.30;81.30;;;;;;4203057;28;20056;-70
2022/04/26 12:02:19;;;;;;;0.00;0.00;;;12.50;80.80;;;;;;4189508;28;20111;-70
2022/04/26 12:04:42;;;;;;;0.00;0.00;;;12.60;80.30;;;;;;4202626;28;20052;-71
2022/04/26 12:07:04;;;;;;;0.00;0.00;;;12.80;79.10;;;;;;4202700;28;20064;-71
2022/04/26 12:09:29;;;;;;;0.00;0.00;;;13.10;78.40;;;;;;4188420;28;20040;-69
2022/04/26 12:12:02;;;;;;;0.00;0.00;;;13.50;77.80;;;;;;4202705;28;20068;-67
2022/04/26 12:14:24;;;;;;;0.00;0.00;;;13.60;77.40;;;;;;4202609;28;20082;-75
2022/04/26 12:16:54;;;;;;;0.00;0.00;;;13.70;78.00;;;;;;4202391;28;20056;-70
2022/04/26 12:19:19;;;;;;;0.00;0.00;;;13.90;77.00;;;;;;4188428;28;20058;-68
2022/04/26 12:21:59;;;;;;;0.00;0.00;;;13.90;75.00;;;;;;4188665;28;20085;-72
2022/04/26 12:24:23;;;;;;;0.00;0.00;;;13.90;76.10;;;;;;4174747;28;20049;-70
2022/04/26 12:27:03;;;;;;;0.00;0.00;;;13.60;75.10;;;;;;4202183;28;20057;-70
2022/04/26 12:29:37;;;;;;;0.00;0.00;;;13.70;75.20;;;;;;4188029;28;20055;-68
2022/04/26 12:32:11;;;;;;;0.00;0.00;;;13.60;75.90;;;;;;4192224;28;20053;-68
2022/04/26 12:34:35;;;;;;;0.00;0.00;;;13.60;75.60;;;;;;4185567;28;20052;-68
2022/04/26 12:37:10;;;;;;;0.00;0.00;;;13.60;76.30;;;;;;4191575;28;20486;-69
2022/04/26 12:39:42;;;;;;;0.00;0.00;;;13.40;75.10;;;;;;4215975;28;20048;-67
2022/04/26 12:42:30;;;;;;;0.00;0.00;;;13.60;75.20;;;;;;4202057;28;20460;-67
2022/04/26 12:45:00;;;;;;;0.00;0.00;;;13.50;75.70;;;;;;4201933;28;20136;-67
2022/04/26 12:50:31;;;;;;;0.00;0.00;;;13.70;75.30;;;;;;4201945;28;20056;-67
2022/04/26 12:53:04;;;;;;;0.00;0.00;;;14.00;75.50;;;;;;4188007;28;20040;-68
2022/04/26 12:55:34;;;;;;;0.00;0.00;;;14.30;74.20;;;;;;4201536;28;20044;-69
2022/04/26 12:58:07;;;;;;;0.00;0.00;;;14.30;73.70;;;;;;4187824;28;20453;-71
2022/04/26 13:00:30;;;;;;;0.00;0.00;;;14.40;73.40;;;;;;4201088;28;20116;-71
2022/04/26 13:02:54;;;;;;;0.00;0.00;;;14.40;73.10;;;;;;4202351;28;20334;-67
2022/04/26 13:05:29;;;;;;;0.00;0.00;;;14.50;72.50;;;;;;4187815;28;20045;-67
2022/04/26 13:07:52;;;;;;;0.00;0.00;;;14.70;71.40;;;;;;4202264;28;20048;-69
2022/04/26 13:10:18;;;;;;;0.00;0.00;;;14.80;71.80;;;;;;4188045;28;20049;-69
2022/04/26 13:12:43;;;;;;;0.00;0.00;;;14.80;71.10;;;;;;4173848;28;20067;-69
2022/04/26 13:15:09;;;;;;;0.00;0.00;;;15.00;70.60;;;;;;4187700;28;20423;-70
2022/04/26 13:17:36;;;;;;;0.00;0.00;;;15.20;70.50;;;;;;4201106;28;20368;-69
2022/04/26 13:20:01;;;;;;;0.00;0.00;;;15.10;68.60;;;;;;4187769;28;20115;-67
2022/04/26 13:22:26;;;;;;;0.00;0.00;;;14.90;68.30;;;;;;4201458;28;20076;-66
2022/04/26 13:24:51;;;;;;;0.00;0.00;;;14.90;69.60;;;;;;4201565;28;20076;-69
2022/04/26 13:27:13;;;;;;;0.00;0.00;;;15.10;69.60;;;;;;4187241;28;20056;-70
2022/04/26 13:29:35;;;;;;;0.00;0.00;;;15.10;67.80;;;;;;4201226;28;20049;-68
2022/04/26 13:31:58;;;;;;;0.00;0.00;;;15.10;67.10;;;;;;4178113;28;20049;-67
2022/04/26 13:34:20;;;;;;;0.00;0.00;;;14.90;67.10;;;;;;4184526;28;20049;-69
2022/04/26 13:37:01;;;;;;;0.00;0.00;;;14.60;66.90;;;;;;4191354;28;20057;-68
2022/04/26 13:39:28;;;;;;;0.00;0.00;;;14.70;69.10;;;;;;4200711;28;20048;-70
2022/04/26 13:41:56;;;;;;;0.00;0.00;;;14.90;68.00;;;;;;4187154;28;20048;-70
2022/04/26 13:44:21;;;;;;;0.00;0.00;;;15.10;68.00;;;;;;4187409;28;20116;-70
2022/04/26 13:46:43;;;;;;;0.00;0.00;;;15.30;68.00;;;;;;4187281;28;20059;-69
2022/04/26 13:49:05;;;;;;;0.00;0.00;;;15.40;66.80;;;;;;4187061;28;20037;-73
2022/04/26 13:51:29;;;;;;;0.00;0.00;;;15.60;66.90;;;;;;4186706;28;20400;-68
2022/04/26 13:53:54;;;;;;;0.00;0.00;;;15.60;64.90;;;;;;4200994;28;20052;-73
2022/04/26 13:56:18;;;;;;;0.00;0.00;;;15.60;65.40;;;;;;4173299;28;20044;-69
2022/04/26 13:58:42;;;;;;;0.00;0.00;;;15.60;64.00;;;;;;4186832;28;20387;-69
2022/04/26 14:01:04;;;;;;;0.00;0.00;;;15.60;64.80;;;;;;4201122;28;20501;-70
2022/04/26 14:03:29;;;;;;;0.00;0.00;;;15.70;65.10;;;;;;4187974;28;20423;-68
2022/04/26 14:05:56;;;;;;;0.00;0.00;;;15.70;64.00;;;;;;4201686;28;20044;-67
2022/04/26 14:08:20;;;;;;;0.00;0.00;;;15.60;63.80;;;;;;4186910;28;20107;-69
2022/04/26 14:10:45;;;;;;;0.00;0.00;;;15.70;64.60;;;;;;4186863;28;20052;-69
2022/04/26 14:13:09;;;;;;;0.00;0.00;;;15.70;64.40;;;;;;4200559;28;20041;-69
2022/04/26 14:23:35;;;;;;;0.00;0.00;;;14.80;63.30;;;;;;4183546;28;20053;-66
2022/04/26 14:25:58;;;;;;;0.00;0.00;;;14.90;63.70;;;;;;4183740;28;20049;-68
2022/04/26 14:28:22;;;;;;;0.00;0.00;;;14.80;62.50;;;;;;4183939;28;20061;-69
2022/04/26 14:30:44;;;;;;;0.00;0.00;;;14.90;63.20;;;;;;4169885;28;20045;-69
2022/04/26 14:33:08;;;;;;;0.00;0.00;;;15.00;63.50;;;;;;4169898;28;20435;-70
2022/04/26 14:35:33;;;;;;;0.00;0.00;;;15.10;61.70;;;;;;4183482;28;20044;-69
2022/04/26 14:37:56;;;;;;;0.00;0.00;;;15.20;60.70;;;;;;4197856;28;20360;-71
2022/04/26 14:40:18;;;;;;;0.00;0.00;;;15.00;60.80;;;;;;4186616;28;20053;-70
2022/04/26 14:42:45;;;;;;;0.00;0.00;;;15.10;60.90;;;;;;4200326;28;20467;-71
2022/04/26 14:45:07;;;;;;;0.00;0.00;;;15.10;60.90;;;;;;4186270;28;20124;-68
2022/04/26 14:47:31;;;;;;;0.00;0.00;;;15.10;60.40;;;;;;4186242;28;20080;-68
2022/04/26 14:49:57;;;;;;;0.00;0.00;;;15.10;60.40;;;;;;4186362;28;20554;-67
2022/04/26 14:52:21;;;;;;;0.00;0.00;;;15.10;60.10;;;;;;4200170;28;20044;-68
2022/04/26 14:55:04;;;;;;;0.00;0.00;;;15.10;60.20;;;;;;4199915;28;20071;-72
2022/04/26 14:57:28;;;;;;;0.00;0.00;;;15.20;59.90;;;;;;4199437;28;20125;-70
2022/04/26 14:59:53;;;;;;;0.00;0.00;;;15.10;60.60;;;;;;4186181;28;20075;-68
2022/04/26 15:02:19;;;;;;;0.00;0.00;;;15.20;62.00;;;;;;4186163;28;20131;-68
2022/04/26 15:04:44;;;;;;;0.00;0.00;;;15.30;61.60;;;;;;4200114;28;20048;-69
2022/04/26 15:07:12;;;;;;;0.00;0.00;;;15.40;61.20;;;;;;4186869;28;20055;-70
2022/04/26 15:09:52;;;;;;;0.00;0.00;;;15.50;60.70;;;;;;4199539;28;20037;-71
2022/04/26 15:17:39;;;;;;;0.00;0.00;;;15.50;60.10;;;;;;4185349;28;20354;-69
2022/04/26 15:20:07;;;;;;;0.00;0.00;;;15.50;60.30;;;;;;4186551;28;20055;-68
2022/04/26 15:22:32;;;;;;;0.00;0.00;;;15.60;60.50;;;;;;4199158;28;20049;-68
2022/04/26 15:24:54;;;;;;;0.00;0.00;;;15.70;60.70;;;;;;4185775;28;20115;-71
2022/04/26 15:27:18;;;;;;;0.00;0.00;;;15.80;60.90;;;;;;4185419;28;20119;-71
2022/04/26 15:29:40;;;;;;;0.00;0.00;;;15.80;60.90;;;;;;4199813;28;20045;-70
2022/04/26 15:32:11;;;;;;;0.00;0.00;;;15.80;60.50;;;;;;4189859;28;20167;-68
2022/04/26 15:34:33;;;;;;;0.00;0.00;;;15.80;60.80;;;;;;4183087;28;20433;-67
2022/04/26 15:36:57;;;;;;;0.00;0.00;;;15.80;60.70;;;;;;4180320;28;20144;-66
2022/04/26 15:39:19;;;;;;;0.00;0.00;;;15.60;61.20;;;;;;4166097;28;20089;-69
2022/04/26 15:41:41;;;;;;;0.00;0.00;;;15.60;61.60;;;;;;4180606;28;20052;-68
2022/04/26 15:44:05;;;;;;;0.00;0.00;;;15.70;62.10;;;;;;4166301;28;20060;-66
2022/04/26 15:46:36;;;;;;;0.00;0.00;;;15.90;62.30;;;;;;4180547;28;20073;-67
2022/04/26 15:49:03;;;;;;;0.00;0.00;;;15.80;62.30;;;;;;4180275;28;20083;-67
2022/04/26 15:51:28;;;;;;;0.00;0.00;;;15.90;62.60;;;;;;4166223;28;20460;-67
2022/04/26 15:53:50;;;;;;;0.00;0.00;;;15.90;62.10;;;;;;4180412;28;20706;-68
2022/04/26 15:56:14;;;;;;;0.00;0.00;;;15.90;61.80;;;;;;4166218;28;20056;-71
2022/04/26 15:58:39;;;;;;;0.00;0.00;;;15.80;62.10;;;;;;4152422;28;20038;-67
2022/04/26 16:01:03;;;;;;;0.00;0.00;;;15.70;63.00;;;;;;4176073;28;20479;-67
2022/04/26 16:03:25;;;;;;;0.00;0.00;;;15.70;63.30;;;;;;4168671;28;20053;-67
2022/04/26 16:05:50;;;;;;;0.00;0.00;;;15.70;63.20;;;;;;4168798;28;20574;-67
2022/04/26 16:08:17;;;;;;;0.00;0.00;;;15.60;63.20;;;;;;4172121;28;20052;-66
2022/04/26 16:21:25;;;;;;;0.00;0.00;;;15.50;63.30;;;;;;4172272;28;20114;-68
2022/04/26 16:23:53;;;;;;;0.00;0.00;;;15.40;63.90;;;;;;4199240;28;20512;-66
2022/04/26 16:26:20;;;;;;;0.00;0.00;;;15.40;63.60;;;;;;4172002;28;20069;-67
2022/04/26 16:28:42;;;;;;;0.00;0.00;;;15.30;63.30;;;;;;4167993;28;20104;-66
2022/04/26 16:31:04;;;;;;;0.00;0.00;;;15.30;63.40;;;;;;4186571;28;20530;-65
2022/04/26 16:33:26;;;;;;;0.00;0.00;;;15.10;63.80;;;;;;4174684;28;20365;-68
2022/04/26 16:35:49;;;;;;;0.00;0.00;;;15.20;64.20;;;;;;4176935;28;20037;-66
2022/04/26 16:38:17;;;;;;;0.00;0.00;;;15.20;64.20;;;;;;4198512;28;20064;-69
2022/04/26 16:40:44;;;;;;;0.00;0.00;;;15.30;64.60;;;;;;4188515;28;20398;-68
2022/04/26 16:43:07;;;;;;;0.00;0.00;;;15.30;64.20;;;;;;4188149;28;20037;-66
2022/04/26 16:45:30;;;;;;;0.00;0.00;;;15.30;64.50;;;;;;4173785;28;20083;-69
2022/04/26 16:47:53;;;;;;;0.00;0.00;;;15.30;64.60;;;;;;4187789;28;20127;-68
2022/04/26 16:50:15;;;;;;;0.00;0.00;;;15.20;63.90;;;;;;4188536;28;20356;-67
2022/04/26 16:52:40;;;;;;;0.00;0.00;;;15.10;64.00;;;;;;4187934;28;20041;-70
2022/04/26 16:55:03;;;;;;;0.00;0.00;;;15.00;63.90;;;;;;4201744;28;20040;-71
2022/04/26 16:57:28;;;;;;;0.00;0.00;;;15.00;64.10;;;;;;4187429;28;20048;-68
2022/04/26 16:59:53;;;;;;;0.00;0.00;;;14.90;64.10;;;;;;4201947;28;20044;-70
2022/04/26 17:02:18;;;;;;;0.00;0.00;;;14.90;64.20;;;;;;4201606;28;20044;-69
2022/04/26 17:04:41;;;;;;;0.00;0.00;;;14.80;63.90;;;;;;4187705;28;20136;-70
2022/04/26 17:07:05;;;;;;;0.00;0.00;;;14.80;64.40;;;;;;4185052;28;20114;-66
2022/04/26 17:09:30;;;;;;;0.00;0.00;;;14.90;64.50;;;;;;4184587;28;20080;-67